Time;durP1;ratioP1;P1;durP2;ratioP2;P2;SDS_P1;SDS_P2;PMS_P1;PMS_P2;Temp;Humidity;BMP_temperature;BMP_pressure;BME280_temperature;BME280_humidity;BME280_pressure;Samples;Min_cycle;Max_cycle;Signal;HPM_P1;HPM_P2
2023/06/29 00:01:33;;;;;;;39.03;14.35;;;;;;;;;;6338797;22;20097;-70
2023/06/29 00:04:01;;;;;;;36.25;13.45;;;;;;;;;;6338751;22;20015;-70
2023/06/29 00:06:36;;;;;;;33.80;14.52;;;;;;;;;;6338889;22;20091;-70
2023/06/29 00:09:04;;;;;;;46.85;14.57;;;;;;;;;;6338889;22;20014;-70
2023/06/29 00:11:31;;;;;;;33.42;13.38;;;;;;;;;;6338690;22;20010;-70
2023/06/29 00:13:59;;;;;;;45.17;14.07;;;;;;;;;;6338777;22;20015;-70
2023/06/29 00:16:26;;;;;;;43.65;13.75;;;;;;;;;;6338704;22;20021;-70
2023/06/29 00:18:55;;;;;;;41.10;13.63;;;;;;;;;;6339497;22;20037;-70
2023/06/29 00:21:22;;;;;;;42.38;14.40;;;;;;;;;;6338340;22;20041;-70
2023/06/29 00:23:53;;;;;;;36.40;13.32;;;;;;;;;;6338672;22;20021;-70
2023/06/29 00:26:21;;;;;;;48.70;14.60;;;;;;;;;;6338483;22;20019;-69
2023/06/29 00:28:48;;;;;;;43.25;13.85;;;;;;;;;;6339010;22;20471;-70
2023/06/29 00:31:18;;;;;;;44.67;14.10;;;;;;;;;;6311144;22;20097;-69
2023/06/29 00:33:46;;;;;;;38.33;14.18;;;;;;;;;;6338304;22;20476;-70
2023/06/29 00:36:13;;;;;;;40.88;14.13;;;;;;;;;;6338861;22;20021;-69
2023/06/29 00:38:41;;;;;;;46.28;14.02;;;;;;;;;;6310696;22;20387;-70
2023/06/29 00:41:08;;;;;;;42.92;14.60;;;;;;;;;;6310589;22;20022;-70
2023/06/29 00:43:36;;;;;;;51.85;14.85;;;;;;;;;;6310760;22;20050;-70
2023/06/29 00:46:07;;;;;;;48.20;14.85;;;;;;;;;;6310866;22;20018;-70
2023/06/29 00:48:38;;;;;;;48.00;14.07;;;;;;;;;;6310776;22;20018;-70
2023/06/29 00:51:06;;;;;;;64.30;14.32;;;;;;;;;;6311154;22;20022;-69
2023/06/29 00:53:34;;;;;;;56.70;13.82;;;;;;;;;;6338677;22;20010;-70
2023/06/29 00:56:02;;;;;;;63.30;14.00;;;;;;;;;;6310569;22;20474;-70
2023/06/29 00:58:30;;;;;;;54.83;14.00;;;;;;;;;;6338334;22;20064;-69
2023/06/29 01:00:58;;;;;;;60.35;13.95;;;;;;;;;;6305470;22;20023;-70
2023/06/29 01:03:27;;;;;;;55.63;13.90;;;;;;;;;;6337489;22;20064;-70
2023/06/29 01:05:57;;;;;;;64.10;15.57;;;;;;;;;;6338242;22;20011;-70
2023/06/29 01:08:28;;;;;;;58.58;14.95;;;;;;;;;;6338680;22;20042;-69
2023/06/29 01:10:57;;;;;;;45.03;15.13;;;;;;;;;;6310564;22;20340;-70
2023/06/29 01:13:25;;;;;;;50.75;13.65;;;;;;;;;;6310908;22;20029;-70
2023/06/29 01:15:53;;;;;;;46.85;14.02;;;;;;;;;;6338590;22;20011;-70
2023/06/29 01:18:23;;;;;;;56.22;14.02;;;;;;;;;;6310860;22;20109;-70
2023/06/29 01:20:51;;;;;;;46.58;13.65;;;;;;;;;;6310761;22;20023;-70
2023/06/29 01:23:25;;;;;;;49.63;13.50;;;;;;;;;;6310805;22;20109;-69
2023/06/29 01:25:57;;;;;;;41.22;13.73;;;;;;;;;;6338201;22;20015;-70
2023/06/29 01:28:26;;;;;;;55.17;14.30;;;;;;;;;;6338169;22;20098;-70
2023/06/29 01:30:53;;;;;;;39.35;14.55;;;;;;;;;;6310530;22;20027;-70
2023/06/29 01:33:22;;;;;;;37.97;12.80;;;;;;;;;;6310957;22;20522;-69
2023/06/29 01:35:54;;;;;;;42.03;13.88;;;;;;;;;;6285408;22;20376;-70
2023/06/29 01:38:27;;;;;;;44.70;14.50;;;;;;;;;;6310962;22;20441;-70
2023/06/29 01:40:55;;;;;;;37.50;13.38;;;;;;;;;;6311175;22;20038;-69
2023/06/29 01:43:24;;;;;;;42.83;13.63;;;;;;;;;;6310758;22;20022;-70
2023/06/29 01:45:52;;;;;;;38.95;13.85;;;;;;;;;;6310719;22;20088;-69
2023/06/29 01:48:22;;;;;;;24.58;13.18;;;;;;;;;;6310930;22;20018;-70
2023/06/29 01:50:50;;;;;;;28.63;12.95;;;;;;;;;;6310653;22;20023;-69
2023/06/29 01:53:17;;;;;;;31.20;12.82;;;;;;;;;;6310416;22;20011;-69
2023/06/29 01:55:45;;;;;;;33.15;12.80;;;;;;;;;;6339637;22;20038;-69
2023/06/29 01:58:12;;;;;;;35.85;12.85;;;;;;;;;;6308898;22;20022;-69
2023/06/29 02:00:40;;;;;;;32.72;13.15;;;;;;;;;;6312185;22;20019;-69
2023/06/29 02:03:07;;;;;;;41.67;13.05;;;;;;;;;;6339884;22;20459;-69
2023/06/29 02:05:35;;;;;;;37.10;13.27;;;;;;;;;;6311963;22;20487;-69
2023/06/29 02:08:02;;;;;;;39.70;13.38;;;;;;;;;;6312508;22;20094;-69
2023/06/29 02:10:31;;;;;;;44.03;13.77;;;;;;;;;;6312449;22;20014;-71
2023/06/29 02:12:59;;;;;;;38.97;13.95;;;;;;;;;;6312346;22;20069;-69
2023/06/29 02:15:27;;;;;;;33.38;13.35;;;;;;;;;;6312627;22;20019;-69
2023/06/29 02:17:54;;;;;;;35.50;14.80;;;;;;;;;;6312111;22;20019;-70
2023/06/29 02:20:22;;;;;;;32.63;13.57;;;;;;;;;;6312051;22;20046;-69
2023/06/29 02:22:50;;;;;;;37.20;13.93;;;;;;;;;;6312847;22;20482;-69
2023/06/29 02:25:18;;;;;;;34.75;13.23;;;;;;;;;;6339933;22;20010;-69
2023/06/29 02:27:46;;;;;;;34.92;13.40;;;;;;;;;;6339901;22;20093;-70
2023/06/29 02:30:14;;;;;;;32.53;13.30;;;;;;;;;;6339722;22;20348;-69
2023/06/29 02:32:41;;;;;;;37.45;13.27;;;;;;;;;;6312142;22;20026;-69
2023/06/29 02:35:09;;;;;;;40.20;14.13;;;;;;;;;;6339785;22;20023;-69
2023/06/29 02:37:37;;;;;;;36.38;13.82;;;;;;;;;;6312030;22;20019;-69
2023/06/29 02:40:06;;;;;;;33.20;12.77;;;;;;;;;;6286931;22;20064;-69
2023/06/29 02:42:33;;;;;;;41.53;14.73;;;;;;;;;;6311957;22;20343;-69
2023/06/29 02:45:01;;;;;;;25.10;13.18;;;;;;;;;;6312371;22;20068;-69
2023/06/29 02:47:29;;;;;;;35.45;14.25;;;;;;;;;;6311998;22;20071;-69
2023/06/29 02:49:59;;;;;;;31.00;12.98;;;;;;;;;;6311903;22;20015;-70
2023/06/29 02:52:33;;;;;;;39.35;14.27;;;;;;;;;;6287049;22;20015;-69
2023/06/29 02:55:01;;;;;;;32.67;14.10;;;;;;;;;;6312075;22;20018;-69
2023/06/29 02:57:29;;;;;;;33.25;14.57;;;;;;;;;;6312134;22;20459;-69
2023/06/29 02:59:56;;;;;;;34.17;14.27;;;;;;;;;;6311772;22;20542;-70
2023/06/29 03:02:23;;;;;;;37.10;13.98;;;;;;;;;;6311637;22;20098;-70
2023/06/29 03:04:51;;;;;;;34.10;14.25;;;;;;;;;;6306715;22;20015;-69
2023/06/29 03:07:19;;;;;;;38.90;14.00;;;;;;;;;;6312112;22;20019;-69
2023/06/29 03:09:47;;;;;;;39.25;15.35;;;;;;;;;;6311854;22;20022;-69
2023/06/29 03:12:14;;;;;;;39.85;14.70;;;;;;;;;;6339528;22;20011;-69
2023/06/29 03:14:42;;;;;;;35.72;13.45;;;;;;;;;;6338980;22;20381;-70
2023/06/29 03:17:09;;;;;;;42.28;14.40;;;;;;;;;;6339512;22;20081;-70
2023/06/29 03:19:37;;;;;;;34.05;15.25;;;;;;;;;;6339472;22;20019;-69
2023/06/29 03:22:04;;;;;;;34.30;14.15;;;;;;;;;;6339134;22;20015;-70
2023/06/29 03:24:32;;;;;;;36.13;14.77;;;;;;;;;;6326798;22;20019;-70
2023/06/29 03:26:59;;;;;;;42.90;16.45;;;;;;;;;;6339428;22;20025;-70
2023/06/29 03:29:27;;;;;;;42.97;15.88;;;;;;;;;;6339445;22;20066;-69
2023/06/29 03:31:55;;;;;;;42.13;16.23;;;;;;;;;;6338982;22;20455;-71
2023/06/29 03:34:22;;;;;;;35.08;16.00;;;;;;;;;;6338926;22;20090;-70
2023/06/29 03:36:50;;;;;;;35.83;16.45;;;;;;;;;;6338974;22;20035;-71
2023/06/29 03:39:18;;;;;;;37.42;16.55;;;;;;;;;;6311887;22;20019;-70
2023/06/29 03:41:45;;;;;;;32.45;15.63;;;;;;;;;;6338783;22;20018;-70
2023/06/29 03:44:13;;;;;;;39.78;16.30;;;;;;;;;;6338986;22;20035;-71
2023/06/29 03:46:41;;;;;;;35.20;16.10;;;;;;;;;;6338797;22;20046;-71
2023/06/29 03:49:08;;;;;;;32.47;15.32;;;;;;;;;;6339131;22;20017;-71
2023/06/29 03:51:36;;;;;;;36.72;15.25;;;;;;;;;;6338880;22;20010;-71
2023/06/29 03:54:03;;;;;;;30.98;15.30;;;;;;;;;;6339083;22;20025;-70
2023/06/29 03:56:34;;;;;;;32.90;16.40;;;;;;;;;;6339433;22;20332;-70
2023/06/29 03:59:01;;;;;;;30.83;16.27;;;;;;;;;;6311016;22;20433;-70
2023/06/29 04:01:29;;;;;;;35.78;16.63;;;;;;;;;;6338786;22;20021;-70
2023/06/29 04:03:56;;;;;;;38.38;17.88;;;;;;;;;;6338584;22;20018;-70
2023/06/29 04:06:24;;;;;;;37.72;18.20;;;;;;;;;;6338692;22;20018;-70
2023/06/29 04:08:51;;;;;;;42.92;17.73;;;;;;;;;;6338748;22;20064;-70
2023/06/29 04:11:19;;;;;;;42.00;18.45;;;;;;;;;;6338732;22;20076;-70
2023/06/29 04:13:46;;;;;;;47.00;19.52;;;;;;;;;;6339044;22;20456;-70
2023/06/29 04:16:14;;;;;;;42.55;19.77;;;;;;;;;;6338713;22;20019;-70
2023/06/29 04:18:41;;;;;;;41.08;19.85;;;;;;;;;;6336812;22;20011;-70
2023/06/29 04:21:09;;;;;;;38.28;19.25;;;;;;;;;;6336414;22;20084;-71
2023/06/29 04:23:36;;;;;;;43.67;20.35;;;;;;;;;;6337290;22;20018;-69
2023/06/29 04:26:04;;;;;;;41.72;20.08;;;;;;;;;;6337459;22;20093;-69
2023/06/29 04:28:35;;;;;;;45.42;21.67;;;;;;;;;;6337881;22;20068;-70
2023/06/29 04:31:03;;;;;;;44.17;21.00;;;;;;;;;;6338020;22;20042;-70
2023/06/29 04:33:31;;;;;;;44.30;20.80;;;;;;;;;;6338224;22;20044;-69
2023/06/29 04:35:58;;;;;;;44.03;22.00;;;;;;;;;;6338482;22;20010;-70
2023/06/29 04:38:27;;;;;;;46.38;22.45;;;;;;;;;;6310862;22;20026;-69
2023/06/29 04:41:04;;;;;;;42.28;23.13;;;;;;;;;;6338540;22;20014;-69
2023/06/29 04:43:32;;;;;;;43.42;21.55;;;;;;;;;;6338037;22;20019;-69
2023/06/29 04:46:00;;;;;;;38.75;21.80;;;;;;;;;;6311285;22;20090;-69
2023/06/29 04:48:46;;;;;;;42.80;21.55;;;;;;;;;;6338834;22;20075;-68
2023/06/29 04:51:15;;;;;;;34.38;22.15;;;;;;;;;;6338490;22;20030;-68
2023/06/29 04:53:42;;;;;;;38.25;22.83;;;;;;;;;;6337759;22;20064;-69
2023/06/29 04:56:10;;;;;;;39.75;21.42;;;;;;;;;;6338335;22;20060;-69
2023/06/29 04:58:37;;;;;;;41.33;23.30;;;;;;;;;;6338529;22;20023;-69
2023/06/29 05:01:05;;;;;;;38.78;21.40;;;;;;;;;;6338319;22;20015;-68
2023/06/29 05:03:34;;;;;;;39.28;22.35;;;;;;;;;;6325994;22;20072;-68
2023/06/29 05:06:01;;;;;;;39.38;23.35;;;;;;;;;;6338546;22;20010;-69
2023/06/29 05:08:29;;;;;;;41.65;23.10;;;;;;;;;;6338261;22;20341;-68
2023/06/29 05:10:56;;;;;;;43.42;22.83;;;;;;;;;;6338114;22;20042;-69
2023/06/29 05:13:24;;;;;;;45.10;22.80;;;;;;;;;;6338171;22;20440;-68
2023/06/29 05:15:51;;;;;;;41.28;22.58;;;;;;;;;;6338125;22;20014;-68
2023/06/29 05:18:19;;;;;;;43.05;22.75;;;;;;;;;;6338055;22;20014;-68
2023/06/29 05:20:46;;;;;;;41.63;22.40;;;;;;;;;;6338262;22;20015;-69
2023/06/29 05:23:14;;;;;;;38.78;22.85;;;;;;;;;;6338091;22;20026;-68
2023/06/29 05:25:42;;;;;;;36.28;21.15;;;;;;;;;;6338384;22;20018;-68
2023/06/29 05:28:10;;;;;;;32.63;21.15;;;;;;;;;;6338076;22;20019;-68
2023/06/29 05:30:37;;;;;;;36.53;21.45;;;;;;;;;;6339498;22;20015;-68
2023/06/29 05:33:05;;;;;;;35.30;21.65;;;;;;;;;;6340082;22;20014;-68
2023/06/29 05:35:34;;;;;;;33.85;21.33;;;;;;;;;;6327693;22;20061;-69
2023/06/29 05:38:02;;;;;;;33.22;20.20;;;;;;;;;;6340269;22;20011;-68
2023/06/29 05:40:29;;;;;;;32.70;18.83;;;;;;;;;;6340068;22;20093;-68
2023/06/29 05:42:57;;;;;;;29.90;18.70;;;;;;;;;;6339972;22;20085;-68
2023/06/29 05:45:24;;;;;;;27.98;18.77;;;;;;;;;;6340437;22;20022;-68
2023/06/29 05:47:52;;;;;;;30.48;19.50;;;;;;;;;;6339867;22;20064;-68
2023/06/29 05:50:20;;;;;;;26.98;17.55;;;;;;;;;;6340416;22;20085;-68
2023/06/29 05:52:47;;;;;;;27.42;18.27;;;;;;;;;;6312722;22;20326;-68
2023/06/29 05:55:19;;;;;;;29.38;18.00;;;;;;;;;;6340450;22;20015;-68
2023/06/29 05:57:46;;;;;;;25.80;17.92;;;;;;;;;;6339860;22;20018;-68
2023/06/29 06:00:14;;;;;;;31.70;18.58;;;;;;;;;;6339808;22;20250;-68
2023/06/29 06:02:44;;;;;;;30.33;19.33;;;;;;;;;;6339906;22;20015;-68
2023/06/29 06:05:12;;;;;;;27.40;18.25;;;;;;;;;;6339737;22;20014;-68
2023/06/29 06:07:40;;;;;;;26.63;17.73;;;;;;;;;;6339791;22;20375;-68
2023/06/29 06:10:07;;;;;;;27.25;17.52;;;;;;;;;;6339847;22;20441;-68
2023/06/29 06:12:35;;;;;;;23.67;16.98;;;;;;;;;;6312178;22;20310;-68
2023/06/29 06:15:02;;;;;;;24.25;16.92;;;;;;;;;;6312279;22;20026;-67
2023/06/29 06:17:30;;;;;;;25.83;16.55;;;;;;;;;;6308791;22;20015;-68
2023/06/29 06:19:58;;;;;;;23.52;16.70;;;;;;;;;;6332783;22;20437;-67
2023/06/29 06:22:25;;;;;;;25.55;17.95;;;;;;;;;;6339409;22;20093;-66
2023/06/29 06:24:52;;;;;;;23.27;16.65;;;;;;;;;;6340118;22;20331;-67
2023/06/29 06:27:20;;;;;;;23.45;16.20;;;;;;;;;;6339790;22;20015;-67
2023/06/29 06:29:47;;;;;;;23.35;16.42;;;;;;;;;;6339736;22;20011;-68
2023/06/29 06:32:15;;;;;;;20.52;15.90;;;;;;;;;;6339818;22;20026;-67
2023/06/29 06:34:43;;;;;;;21.42;17.10;;;;;;;;;;6339743;22;20034;-67
2023/06/29 06:37:11;;;;;;;26.95;16.98;;;;;;;;;;6339505;22;20390;-67
2023/06/29 06:39:38;;;;;;;22.08;17.02;;;;;;;;;;6312041;22;20468;-67
2023/06/29 06:42:06;;;;;;;22.50;17.40;;;;;;;;;;6339150;22;20019;-68
2023/06/29 06:44:36;;;;;;;22.92;17.52;;;;;;;;;;6311916;22;20041;-68
2023/06/29 06:47:04;;;;;;;24.80;17.15;;;;;;;;;;6339583;22;20464;-68
2023/06/29 06:49:32;;;;;;;22.27;16.85;;;;;;;;;;6339432;22;20042;-68
2023/06/29 06:52:02;;;;;;;22.92;17.30;;;;;;;;;;6339980;22;20014;-68
2023/06/29 06:54:29;;;;;;;23.55;15.60;;;;;;;;;;6339752;22;20433;-68
2023/06/29 06:56:57;;;;;;;24.75;16.73;;;;;;;;;;6339437;22;20023;-68
2023/06/29 06:59:24;;;;;;;23.50;17.40;;;;;;;;;;6311616;22;20014;-68
2023/06/29 07:01:52;;;;;;;22.48;16.55;;;;;;;;;;6339169;22;20019;-68
2023/06/29 07:04:19;;;;;;;22.17;16.67;;;;;;;;;;6339456;22;20106;-68
2023/06/29 07:06:47;;;;;;;23.27;16.45;;;;;;;;;;6339024;22;20344;-68
2023/06/29 07:09:15;;;;;;;20.98;16.52;;;;;;;;;;6339232;22;20093;-68
2023/06/29 07:11:43;;;;;;;22.98;16.77;;;;;;;;;;6311642;22;20022;-68
2023/06/29 07:14:10;;;;;;;26.02;17.25;;;;;;;;;;6339125;22;20044;-68
2023/06/29 07:16:37;;;;;;;20.48;16.60;;;;;;;;;;6339029;22;20038;-69
2023/06/29 07:19:07;;;;;;;22.45;16.63;;;;;;;;;;6339063;22;20041;-68
2023/06/29 07:21:37;;;;;;;19.55;15.40;;;;;;;;;;6311470;22;20408;-69
2023/06/29 07:24:05;;;;;;;23.20;15.45;;;;;;;;;;6311504;22;20088;-68
2023/06/29 07:26:35;;;;;;;17.95;14.10;;;;;;;;;;6326734;22;20029;-68
2023/06/29 07:29:04;;;;;;;22.60;14.32;;;;;;;;;;6311684;22;20510;-68
2023/06/29 07:31:32;;;;;;;19.52;14.80;;;;;;;;;;6339081;22;20034;-69
2023/06/29 07:33:59;;;;;;;24.13;15.00;;;;;;;;;;6311749;22;20023;-67
2023/06/29 07:36:29;;;;;;;19.42;14.85;;;;;;;;;;6338989;22;20072;-68
2023/06/29 07:38:56;;;;;;;19.77;13.13;;;;;;;;;;6338886;22;20025;-68
2023/06/29 07:41:24;;;;;;;19.27;13.98;;;;;;;;;;6338963;22;20068;-68
2023/06/29 07:43:52;;;;;;;16.77;12.75;;;;;;;;;;6338730;22;20053;-69
2023/06/29 07:46:20;;;;;;;15.10;13.15;;;;;;;;;;6338713;22;20010;-68
2023/06/29 07:48:48;;;;;;;17.55;12.55;;;;;;;;;;6339069;22;20050;-68
2023/06/29 07:51:16;;;;;;;15.18;11.70;;;;;;;;;;6311050;22;20433;-68
2023/06/29 07:53:45;;;;;;;16.58;10.55;;;;;;;;;;6310802;22;20068;-69
2023/06/29 07:56:12;;;;;;;14.15;9.95;;;;;;;;;;6338769;22;20019;-68
2023/06/29 07:58:40;;;;;;;13.88;9.98;;;;;;;;;;6338549;22;20023;-68
2023/06/29 08:01:09;;;;;;;12.43;9.30;;;;;;;;;;6338724;22;20015;-69
2023/06/29 08:03:39;;;;;;;14.13;8.93;;;;;;;;;;6339158;22;20014;-69
2023/06/29 08:06:28;;;;;;;12.63;8.35;;;;;;;;;;6310327;22;20023;-69
2023/06/29 08:08:58;;;;;;;11.15;8.00;;;;;;;;;;6338313;22;20026;-69
2023/06/29 08:11:30;;;;;;;11.35;8.50;;;;;;;;;;6338548;22;20015;-68
2023/06/29 08:13:58;;;;;;;10.18;7.38;;;;;;;;;;6338601;22;20471;-69
2023/06/29 08:16:26;;;;;;;11.77;7.15;;;;;;;;;;6336906;22;20015;-69
2023/06/29 08:18:53;;;;;;;11.30;7.07;;;;;;;;;;6338457;22;20060;-69
2023/06/29 08:21:21;;;;;;;11.55;6.93;;;;;;;;;;6311220;22;20057;-69
2023/06/29 08:23:50;;;;;;;9.02;6.78;;;;;;;;;;6311029;22;20019;-69
2023/06/29 08:26:21;;;;;;;9.98;6.57;;;;;;;;;;6310778;22;20063;-67
2023/06/29 08:28:49;;;;;;;10.27;6.95;;;;;;;;;;6338641;22;20025;-69
2023/06/29 08:31:17;;;;;;;9.88;6.60;;;;;;;;;;6311168;22;20015;-69
2023/06/29 08:33:46;;;;;;;10.73;6.30;;;;;;;;;;6338247;22;20080;-69
2023/06/29 08:36:13;;;;;;;7.78;6.72;;;;;;;;;;6311552;22;20011;-69
2023/06/29 08:38:45;;;;;;;9.60;6.13;;;;;;;;;;6338355;22;20432;-69
2023/06/29 08:41:13;;;;;;;8.25;5.82;;;;;;;;;;6338398;22;20023;-68
2023/06/29 08:43:41;;;;;;;12.68;6.90;;;;;;;;;;6338329;22;20049;-68
2023/06/29 08:46:09;;;;;;;9.68;6.05;;;;;;;;;;6338403;22;20021;-68
2023/06/29 08:48:37;;;;;;;7.10;5.93;;;;;;;;;;6310742;22;20084;-68
2023/06/29 08:51:07;;;;;;;9.00;5.85;;;;;;;;;;6338324;22;20015;-68
2023/06/29 08:53:35;;;;;;;9.68;5.82;;;;;;;;;;6338208;22;20462;-68
2023/06/29 08:56:03;;;;;;;7.72;5.43;;;;;;;;;;6338319;22;20340;-68
2023/06/29 08:58:31;;;;;;;8.27;6.07;;;;;;;;;;6338524;22;20019;-68
2023/06/29 09:00:58;;;;;;;8.45;5.30;;;;;;;;;;6310750;22;20007;-68
2023/06/29 09:03:29;;;;;;;10.60;6.40;;;;;;;;;;6338384;22;20019;-68
2023/06/29 09:06:00;;;;;;;10.23;5.60;;;;;;;;;;6337798;22;20014;-68
2023/06/29 09:08:27;;;;;;;12.48;5.75;;;;;;;;;;6338226;22;20014;-68
2023/06/29 09:10:55;;;;;;;13.18;5.47;;;;;;;;;;6338345;22;20019;-68
2023/06/29 09:13:26;;;;;;;7.88;4.55;;;;;;;;;;6338182;22;20015;-67
2023/06/29 09:16:00;;;;;;;5.82;4.28;;;;;;;;;;6338613;22;20383;-67
2023/06/29 09:18:28;;;;;;;;;;;;;;;;;;6338744;22;20504;-68
2023/06/29 09:20:56;;;;;;;5.47;4.38;;;;;;;;;;6311145;22;19915;-68
2023/06/29 09:23:27;;;;;;;10.50;4.88;;;;;;;;;;6338029;22;20018;-67
2023/06/29 09:25:56;;;;;;;6.63;4.75;;;;;;;;;;6310698;22;20015;-68
2023/06/29 09:28:25;;;;;;;6.95;4.55;;;;;;;;;;6337948;22;20093;-67
2023/06/29 09:30:53;;;;;;;7.43;4.45;;;;;;;;;;6338217;22;20394;-68
2023/06/29 09:33:25;;;;;;;5.75;4.60;;;;;;;;;;6338162;22;20015;-68
2023/06/29 09:35:53;;;;;;;9.98;4.13;;;;;;;;;;6310521;22;20449;-68
2023/06/29 09:38:21;;;;;;;6.65;3.88;;;;;;;;;;6338154;22;20015;-68
2023/06/29 09:40:55;;;;;;;6.72;4.20;;;;;;;;;;6337576;22;20018;-68
2023/06/29 09:43:26;;;;;;;8.57;3.60;;;;;;;;;;6309956;22;20023;-67
2023/06/29 09:46:02;;;;;;;8.25;3.60;;;;;;;;;;6336423;22;20011;-68
2023/06/29 09:48:31;;;;;;;7.78;3.40;;;;;;;;;;6338112;22;20076;-67
2023/06/29 09:51:01;;;;;;;5.32;2.90;;;;;;;;;;6338030;22;20498;-68
2023/06/29 09:53:30;;;;;;;6.75;3.50;;;;;;;;;;6338229;22;20042;-68
2023/06/29 09:55:59;;;;;;;7.72;3.22;;;;;;;;;;6337878;22;20011;-68
2023/06/29 09:58:29;;;;;;;5.38;3.28;;;;;;;;;;6337877;22;20038;-68
2023/06/29 10:00:59;;;;;;;3.75;3.00;;;;;;;;;;6337805;22;20015;-68
2023/06/29 10:03:27;;;;;;;8.18;3.35;;;;;;;;;;6337538;22;20010;-68
2023/06/29 10:05:57;;;;;;;5.90;3.28;;;;;;;;;;6337694;22;20022;-68
2023/06/29 10:08:27;;;;;;;3.80;3.00;;;;;;;;;;6337878;22;20090;-67
2023/06/29 10:10:57;;;;;;;4.30;3.10;;;;;;;;;;6337798;22;20023;-67
2023/06/29 10:13:29;;;;;;;;;;;;;;;;;;6338661;22;20014;-67
2023/06/29 10:15:57;;;;;;;5.32;2.90;;;;;;;;;;6337622;22;19914;-68
2023/06/29 10:18:29;;;;;;;7.07;2.80;;;;;;;;;;6339718;22;20041;-68
2023/06/29 10:20:57;;;;;;;7.57;3.50;;;;;;;;;;6339463;22;20322;-68
2023/06/29 10:23:25;;;;;;;6.78;3.45;;;;;;;;;;6339499;22;20094;-68
2023/06/29 10:25:54;;;;;;;4.45;2.90;;;;;;;;;;6311654;22;20135;-68
2023/06/29 10:28:22;;;;;;;4.45;2.85;;;;;;;;;;6339090;22;20015;-67
2023/06/29 10:30:52;;;;;;;3.22;2.83;;;;;;;;;;6339334;22;20018;-67
2023/06/29 10:33:23;;;;;;;4.45;2.65;;;;;;;;;;6339507;22;20081;-68
2023/06/29 10:35:51;;;;;;;7.43;3.78;;;;;;;;;;6339279;22;20018;-68
2023/06/29 10:38:19;;;;;;;5.25;2.88;;;;;;;;;;6339206;22;20037;-67
2023/06/29 10:40:50;;;;;;;10.20;4.03;;;;;;;;;;6339364;22;20114;-68
2023/06/29 10:43:17;;;;;;;5.00;2.92;;;;;;;;;;6339671;22;20011;-67
2023/06/29 10:45:45;;;;;;;6.45;3.20;;;;;;;;;;6339248;22;20026;-68
2023/06/29 10:48:16;;;;;;;5.88;2.80;;;;;;;;;;6339170;22;20018;-67
2023/06/29 10:51:07;;;;;;;5.97;3.75;;;;;;;;;;6339311;22;20014;-67
2023/06/29 10:53:35;;;;;;;5.15;2.85;;;;;;;;;;6339266;22;20011;-67
2023/06/29 10:56:02;;;;;;;3.83;2.35;;;;;;;;;;6339326;22;20018;-68
2023/06/29 10:58:52;;;;;;;6.45;2.70;;;;;;;;;;6338944;22;20026;-68
2023/06/29 11:01:20;;;;;;;3.72;2.10;;;;;;;;;;6338988;22;20064;-67
2023/06/29 11:03:48;;;;;;;4.55;2.30;;;;;;;;;;6311889;22;20459;-67
2023/06/29 11:06:15;;;;;;;44.58;11.77;;;;;;;;;;6339021;22;20022;-67
2023/06/29 11:09:12;;;;;;;105.75;23.67;;;;;;;;;;6338999;22;20045;-68
2023/06/29 11:11:46;;;;;;;144.48;43.90;;;;;;;;;;6311726;22;20015;-68
2023/06/29 11:14:14;;;;;;;231.80;70.22;;;;;;;;;;6311995;22;20019;-67
2023/06/29 11:16:42;;;;;;;43.58;13.98;;;;;;;;;;6339014;22;20014;-68
2023/06/29 11:19:12;;;;;;;6.35;3.90;;;;;;;;;;6339071;22;20097;-68
2023/06/29 11:21:40;;;;;;;9.50;5.35;;;;;;;;;;6339060;22;20025;-66
2023/06/29 11:24:10;;;;;;;50.10;16.83;;;;;;;;;;6338742;22;20011;-67
2023/06/29 11:26:37;;;;;;;34.42;12.23;;;;;;;;;;6338548;22;20480;-68
2023/06/29 11:29:08;;;;;;;29.98;11.25;;;;;;;;;;6338927;22;20018;-67
2023/06/29 11:31:37;;;;;;;9.93;4.03;;;;;;;;;;6339095;22;20015;-68
2023/06/29 11:34:12;;;;;;;9.27;4.82;;;;;;;;;;6338786;22;20019;-67
2023/06/29 11:36:40;;;;;;;8.82;3.72;;;;;;;;;;6339094;22;20377;-68
2023/06/29 11:39:14;;;;;;;19.27;7.07;;;;;;;;;;6338720;22;20445;-68
2023/06/29 11:41:41;;;;;;;8.48;3.58;;;;;;;;;;6339336;22;20018;-68
2023/06/29 11:44:09;;;;;;;6.13;2.72;;;;;;;;;;6338129;22;20334;-67
2023/06/29 11:46:43;;;;;;;14.60;5.82;;;;;;;;;;6338639;22;20015;-66
2023/06/29 11:49:18;;;;;;;9.23;4.60;;;;;;;;;;6338428;22;20015;-67
2023/06/29 11:51:49;;;;;;;7.35;4.13;;;;;;;;;;6337574;22;20345;-68
2023/06/29 11:54:17;;;;;;;6.93;3.30;;;;;;;;;;6338781;22;20019;-67
2023/06/29 11:56:45;;;;;;;4.72;3.45;;;;;;;;;;6311503;22;20019;-67
2023/06/29 11:59:20;;;;;;;8.80;4.20;;;;;;;;;;6338745;22;20085;-67
2023/06/29 12:01:48;;;;;;;6.85;4.05;;;;;;;;;;6338660;22;20067;-67
2023/06/29 12:04:15;;;;;;;9.90;4.47;;;;;;;;;;6339341;22;20023;-67
2023/06/29 12:06:50;;;;;;;6.03;4.10;;;;;;;;;;6338549;22;20042;-68
2023/06/29 12:09:18;;;;;;;7.55;3.30;;;;;;;;;;6338514;22;20321;-68
2023/06/29 12:11:45;;;;;;;4.53;2.90;;;;;;;;;;6338495;22;20018;-67
2023/06/29 12:14:13;;;;;;;6.10;4.43;;;;;;;;;;6338643;22;20018;-68
2023/06/29 12:16:41;;;;;;;7.07;3.88;;;;;;;;;;6310924;22;20038;-69
2023/06/29 12:19:12;;;;;;;7.32;4.45;;;;;;;;;;6338454;22;20015;-67
2023/06/29 12:21:40;;;;;;;6.93;3.15;;;;;;;;;;6310750;22;20318;-66
2023/06/29 12:24:09;;;;;;;6.32;2.80;;;;;;;;;;6338877;22;20015;-67
2023/06/29 12:26:36;;;;;;;5.72;3.30;;;;;;;;;;6310934;22;20072;-68
2023/06/29 12:29:07;;;;;;;3.50;2.72;;;;;;;;;;6338416;22;20018;-67
2023/06/29 12:31:35;;;;;;;5.18;2.90;;;;;;;;;;6338294;22;20045;-67
2023/06/29 12:34:03;;;;;;;5.00;3.20;;;;;;;;;;6338371;22;20093;-68
2023/06/29 12:36:34;;;;;;;7.95;3.67;;;;;;;;;;6293016;22;20337;-69
2023/06/29 12:39:02;;;;;;;9.35;3.40;;;;;;;;;;6331728;22;20018;-68
2023/06/29 12:41:29;;;;;;;4.10;2.80;;;;;;;;;;6338218;22;20041;-68
2023/06/29 12:43:57;;;;;;;4.03;2.80;;;;;;;;;;6338423;22;20014;-68
2023/06/29 12:46:27;;;;;;;4.35;2.67;;;;;;;;;;6338237;22;20441;-68
2023/06/29 12:48:55;;;;;;;5.75;3.05;;;;;;;;;;6338327;22;20068;-68
2023/06/29 12:51:22;;;;;;;3.95;2.80;;;;;;;;;;6338663;22;20839;-67
2023/06/29 12:53:50;;;;;;;5.70;2.88;;;;;;;;;;6338394;22;20014;-67
2023/06/29 12:56:17;;;;;;;5.35;3.00;;;;;;;;;;6338449;22;20025;-67
2023/06/29 12:58:46;;;;;;;3.97;2.65;;;;;;;;;;6310385;22;20449;-68
2023/06/29 13:01:14;;;;;;;8.60;3.50;;;;;;;;;;6338325;22;20421;-67
2023/06/29 13:03:41;;;;;;;6.05;3.78;;;;;;;;;;6338055;22;20022;-68
2023/06/29 13:06:12;;;;;;;6.10;4.05;;;;;;;;;;6311362;22;20015;-67
2023/06/29 13:08:39;;;;;;;4.55;3.10;;;;;;;;;;6338190;22;20045;-68
2023/06/29 13:11:11;;;;;;;6.30;3.00;;;;;;;;;;6310193;22;20437;-68
2023/06/29 13:13:45;;;;;;;4.20;3.05;;;;;;;;;;6337885;22;20071;-67
2023/06/29 13:16:16;;;;;;;5.50;2.70;;;;;;;;;;6338023;22;20011;-67
2023/06/29 13:18:44;;;;;;;8.15;3.20;;;;;;;;;;6337416;22;20042;-67
2023/06/29 13:21:11;;;;;;;5.93;3.88;;;;;;;;;;6337554;22;20015;-68
2023/06/29 13:23:39;;;;;;;5.50;2.63;;;;;;;;;;6337814;22;20019;-68
2023/06/29 13:26:06;;;;;;;5.55;3.42;;;;;;;;;;6338271;22;20072;-68
2023/06/29 13:28:34;;;;;;;3.03;2.60;;;;;;;;;;6337615;22;20011;-68
2023/06/29 13:31:01;;;;;;;5.13;2.78;;;;;;;;;;6337991;22;20445;-67
2023/06/29 13:33:29;;;;;;;4.93;2.83;;;;;;;;;;6338128;22;20456;-68
2023/06/29 13:35:59;;;;;;;4.63;2.40;;;;;;;;;;6309963;22;20018;-67
2023/06/29 13:38:27;;;;;;;7.53;4.65;;;;;;;;;;6337882;22;20010;-67
2023/06/29 13:40:55;;;;;;;8.55;3.65;;;;;;;;;;6337040;22;20445;-67
2023/06/29 13:43:22;;;;;;;9.82;2.50;;;;;;;;;;6337723;22;20022;-68
2023/06/29 13:45:50;;;;;;;6.95;3.85;;;;;;;;;;6337942;22;20019;-77
2023/06/29 13:48:19;;;;;;;2.60;2.40;;;;;;;;;;6339599;22;20451;-75
2023/06/29 13:50:47;;;;;;;4.95;2.80;;;;;;;;;;6339223;22;20015;-76
2023/06/29 13:53:16;;;;;;;5.78;2.83;;;;;;;;;;6314251;22;20050;-74
2023/06/29 13:55:44;;;;;;;4.35;2.80;;;;;;;;;;6314285;22;20018;-74
2023/06/29 13:58:12;;;;;;;6.05;2.83;;;;;;;;;;6340576;22;20015;-75
2023/06/29 14:00:41;;;;;;;5.55;3.33;;;;;;;;;;6312286;22;20014;-77
2023/06/29 14:03:09;;;;;;;5.03;3.25;;;;;;;;;;6340199;22;20018;-74
2023/06/29 14:05:37;;;;;;;3.72;2.92;;;;;;;;;;6339162;22;20041;-73
2023/06/29 14:08:04;;;;;;;4.90;2.30;;;;;;;;;;6340760;22;20017;-74
2023/06/29 14:10:32;;;;;;;3.88;2.38;;;;;;;;;;6300686;22;20046;-72
2023/06/29 14:12:59;;;;;;;3.05;2.45;;;;;;;;;;6340088;22;20021;-73
2023/06/29 14:15:27;;;;;;;3.38;2.60;;;;;;;;;;6313644;22;20049;-74
2023/06/29 14:17:55;;;;;;;5.57;2.70;;;;;;;;;;6340973;22;20379;-75
2023/06/29 14:20:22;;;;;;;3.70;2.53;;;;;;;;;;6340852;22;20452;-71
2023/06/29 14:22:53;;;;;;;4.43;2.30;;;;;;;;;;6312520;22;20021;-71
2023/06/29 14:25:21;;;;;;;6.75;2.85;;;;;;;;;;6340550;22;20026;-71
2023/06/29 14:27:48;;;;;;;6.40;2.47;;;;;;;;;;6337992;22;20460;-71
2023/06/29 14:30:16;;;;;;;4.40;2.13;;;;;;;;;;6337768;22;20344;-71
2023/06/29 14:32:44;;;;;;;3.42;2.20;;;;;;;;;;6339827;22;20022;-70
2023/06/29 14:35:11;;;;;;;5.55;2.80;;;;;;;;;;6337880;22;20026;-71
2023/06/29 14:37:57;;;;;;;4.90;2.60;;;;;;;;;;6340075;22;20046;-70